Time;durP1;ratioP1;P1;durP2;ratioP2;P2;SDS_P1;SDS_P2;PMS_P1;PMS_P2;Temp;Humidity;BMP_temperature;BMP_pressure;BME280_temperature;BME280_humidity;BME280_pressure;Samples;Min_cycle;Max_cycle;Signal;HPM_P1;HPM_P2
2022/03/26 00:00:56;;;;;;;32.10;22.63;;;17.50;76.80;;;;;;4211271;28;20610;-72
2022/03/26 00:02:58;;;;;;;33.30;22.15;;;17.50;76.70;;;;;;4210975;28;20215;-72
2022/03/26 00:05:00;;;;;;;32.72;22.35;;;17.60;76.60;;;;;;4209483;28;20222;-72
2022/03/26 00:07:03;;;;;;;28.38;21.38;;;17.60;76.50;;;;;;4209264;28;20662;-72
2022/03/26 00:09:05;;;;;;;34.05;22.60;;;17.60;76.50;;;;;;4212539;28;20236;-73
2022/03/26 00:11:08;;;;;;;31.50;21.58;;;17.70;76.40;;;;;;4211254;28;20256;-72
2022/03/26 00:13:10;;;;;;;31.65;21.45;;;17.70;76.50;;;;;;4211313;28;20214;-73
2022/03/26 00:15:13;;;;;;;33.25;21.45;;;17.70;76.40;;;;;;4209349;28;20223;-72
2022/03/26 00:17:17;;;;;;;30.10;21.20;;;17.70;76.40;;;;;;4210625;28;20700;-72
2022/03/26 00:19:19;;;;;;;30.90;21.35;;;17.70;76.50;;;;;;4207372;28;20256;-72
2022/03/26 00:21:21;;;;;;;30.48;20.20;;;17.80;76.50;;;;;;4210612;28;20265;-73
2022/03/26 00:23:24;;;;;;;28.65;20.48;;;17.80;76.50;;;;;;4208952;28;20215;-73
2022/03/26 00:25:27;;;;;;;29.75;20.52;;;17.80;76.60;;;;;;4210931;28;21714;-73
2022/03/26 00:27:30;;;;;;;30.63;21.42;;;17.80;76.50;;;;;;4206541;28;20214;-73
2022/03/26 00:29:33;;;;;;;26.50;19.48;;;17.80;76.50;;;;;;4209284;28;20284;-73
2022/03/26 00:31:37;;;;;;;28.35;19.55;;;17.80;76.40;;;;;;4210152;28;20283;-73
2022/03/26 00:33:42;;;;;;;26.13;18.60;;;17.90;76.60;;;;;;4209170;28;20211;-73
2022/03/26 00:35:44;;;;;;;25.77;19.05;;;17.90;76.60;;;;;;4209092;28;20240;-73
2022/03/26 00:37:46;;;;;;;27.80;18.98;;;17.90;76.60;;;;;;4210376;28;20219;-73
2022/03/26 00:39:49;;;;;;;27.70;19.67;;;17.90;77.50;;;;;;4210073;28;20215;-73
2022/03/26 00:41:51;;;;;;;29.55;19.95;;;17.90;76.60;;;;;;4208670;28;20211;-73
2022/03/26 00:43:53;;;;;;;28.27;19.52;;;17.90;76.60;;;;;;4209940;28;20275;-73
2022/03/26 00:45:56;;;;;;;27.30;18.77;;;17.90;76.60;;;;;;4210492;28;20219;-73
2022/03/26 00:47:58;;;;;;;25.42;18.42;;;17.90;77.60;;;;;;4210004;28;20260;-73
2022/03/26 00:50:02;;;;;;;28.77;18.42;;;17.90;76.60;;;;;;4208632;28;20283;-73
2022/03/26 00:52:05;;;;;;;28.00;19.30;;;17.90;76.60;;;;;;4210744;28;20232;-73
2022/03/26 00:54:08;;;;;;;24.17;17.30;;;17.90;76.80;;;;;;4209761;28;20219;-73
2022/03/26 00:56:11;;;;;;;23.15;18.42;;;18.00;77.00;;;;;;4210792;28;20210;-72
2022/03/26 00:58:13;;;;;;;20.65;17.58;;;18.00;77.10;;;;;;4210510;28;20222;-73
2022/03/26 01:00:16;;;;;;;22.73;18.17;;;18.00;77.00;;;;;;4209928;28;20252;-73
2022/03/26 01:02:18;;;;;;;23.45;17.70;;;18.00;77.00;;;;;;4208446;28;20614;-73
2022/03/26 01:04:20;;;;;;;25.00;17.85;;;18.00;76.90;;;;;;4210257;28;20232;-73
2022/03/26 01:06:24;;;;;;;25.17;17.75;;;18.00;77.10;;;;;;4206814;28;20255;-73
2022/03/26 01:08:27;;;;;;;21.38;16.83;;;18.00;77.10;;;;;;4208537;28;20214;-73
2022/03/26 01:10:30;;;;;;;24.02;17.58;;;18.00;77.00;;;;;;4209713;28;20238;-73
2022/03/26 01:12:32;;;;;;;22.08;17.35;;;18.00;77.00;;;;;;4209702;28;20267;-73
2022/03/26 01:14:35;;;;;;;22.77;17.13;;;18.00;78.00;;;;;;4208371;28;20219;-73
2022/03/26 01:16:37;;;;;;;24.70;17.15;;;18.00;77.40;;;;;;4210438;28;20255;-73
2022/03/26 01:18:39;;;;;;;22.20;16.85;;;18.00;77.20;;;;;;4209883;28;20264;-73
2022/03/26 01:20:42;;;;;;;23.42;16.25;;;18.10;77.30;;;;;;4208555;28;20218;-72
2022/03/26 01:22:46;;;;;;;22.17;16.95;;;18.10;77.30;;;;;;4209171;28;20219;-73
2022/03/26 01:24:48;;;;;;;21.52;15.55;;;18.10;77.10;;;;;;4210132;28;20218;-72
2022/03/26 01:26:51;;;;;;;21.00;17.23;;;18.10;77.40;;;;;;4206214;28;20206;-73
2022/03/26 01:28:54;;;;;;;21.65;16.63;;;18.00;77.90;;;;;;4207983;28;20210;-73
2022/03/26 01:30:56;;;;;;;21.55;16.52;;;18.10;77.10;;;;;;4212242;28;20276;-72
2022/03/26 01:32:59;;;;;;;25.05;15.85;;;18.10;77.40;;;;;;4213394;28;20206;-73
2022/03/26 01:35:01;;;;;;;23.08;16.95;;;18.10;77.30;;;;;;4210388;28;20967;-73
2022/03/26 01:37:04;;;;;;;21.13;15.90;;;18.10;77.40;;;;;;4210368;28;20623;-73
2022/03/26 01:39:08;;;;;;;22.30;16.30;;;18.10;77.30;;;;;;4212640;28;20244;-72
2022/03/26 01:41:11;;;;;;;22.30;16.65;;;18.10;77.70;;;;;;4209898;28;20259;-73
2022/03/26 01:43:13;;;;;;;21.25;15.35;;;18.10;77.50;;;;;;4211955;28;20268;-72
2022/03/26 01:45:16;;;;;;;20.83;15.48;;;18.10;77.60;;;;;;4211814;28;20264;-73
2022/03/26 01:47:18;;;;;;;19.80;14.70;;;18.10;77.70;;;;;;4211927;28;20237;-73
2022/03/26 01:49:22;;;;;;;21.48;15.00;;;18.20;77.90;;;;;;4212163;28;20263;-72
2022/03/26 01:51:24;;;;;;;19.90;14.98;;;18.10;77.50;;;;;;4213362;28;20230;-73
2022/03/26 01:53:26;;;;;;;18.08;14.68;;;18.20;78.60;;;;;;4212538;28;20211;-73
2022/03/26 01:55:30;;;;;;;21.50;15.43;;;18.20;78.70;;;;;;4210830;28;20215;-73
2022/03/26 01:57:33;;;;;;;19.58;14.55;;;18.10;77.50;;;;;;4212734;28;20247;-72
2022/03/26 01:59:35;;;;;;;20.17;14.35;;;18.20;77.70;;;;;;4211559;28;20222;-73
2022/03/26 02:01:38;;;;;;;21.50;13.95;;;18.10;77.60;;;;;;4212333;28;20253;-72
2022/03/26 02:03:41;;;;;;;17.95;15.23;;;18.10;77.60;;;;;;4212682;28;20218;-72
2022/03/26 02:05:43;;;;;;;19.20;14.70;;;18.10;77.70;;;;;;4209882;28;20215;-72
2022/03/26 02:07:46;;;;;;;20.25;14.32;;;18.20;77.90;;;;;;4213192;28;20218;-72
2022/03/26 02:09:49;;;;;;;18.30;14.05;;;18.10;77.80;;;;;;4211890;28;21830;-73
2022/03/26 02:11:52;;;;;;;19.75;15.02;;;18.20;77.80;;;;;;4211018;28;20230;-73
2022/03/26 02:13:56;;;;;;;22.20;13.93;;;18.20;77.80;;;;;;4212889;28;20214;-73
2022/03/26 02:15:59;;;;;;;18.92;13.77;;;18.10;77.70;;;;;;4207066;28;20210;-72
2022/03/26 02:18:01;;;;;;;17.75;14.35;;;18.10;77.80;;;;;;4208460;28;20211;-72
2022/03/26 02:20:07;;;;;;;19.15;14.13;;;18.10;77.80;;;;;;4210718;28;20210;-73
2022/03/26 02:22:09;;;;;;;16.77;13.70;;;18.10;78.00;;;;;;4209647;28;20938;-73
2022/03/26 02:24:11;;;;;;;18.70;13.68;;;18.20;78.10;;;;;;4211718;28;20219;-72
2022/03/26 02:26:16;;;;;;;15.95;13.10;;;18.20;78.00;;;;;;4211232;28;20263;-73
2022/03/26 02:28:18;;;;;;;16.75;13.02;;;18.10;78.20;;;;;;4211426;28;20320;-73
2022/03/26 02:30:21;;;;;;;16.90;13.48;;;18.20;78.10;;;;;;4210919;28;20214;-72
2022/03/26 02:32:26;;;;;;;16.95;12.98;;;18.20;78.00;;;;;;4211489;28;20247;-72
2022/03/26 02:34:29;;;;;;;19.65;13.63;;;18.10;78.10;;;;;;4211198;28;20267;-72
2022/03/26 02:36:33;;;;;;;21.35;12.98;;;18.10;77.90;;;;;;4211238;28;20218;-72
2022/03/26 02:38:35;;;;;;;15.85;12.77;;;18.10;78.00;;;;;;4211215;28;20256;-73
2022/03/26 02:40:38;;;;;;;20.75;12.82;;;18.20;78.20;;;;;;4211284;28;20214;-73
2022/03/26 02:42:40;;;;;;;16.65;13.10;;;18.10;78.20;;;;;;4211641;28;20218;-72
2022/03/26 02:44:43;;;;;;;17.05;13.10;;;18.20;78.20;;;;;;4211202;28;20252;-72
2022/03/26 02:46:46;;;;;;;16.38;12.50;;;18.20;78.20;;;;;;4212092;28;20219;-73
2022/03/26 02:48:49;;;;;;;18.08;12.55;;;18.10;78.30;;;;;;4211955;28;20638;-72
2022/03/26 02:50:54;;;;;;;17.15;12.63;;;18.20;78.20;;;;;;4210835;28;20618;-73
2022/03/26 02:52:58;;;;;;;17.10;12.65;;;18.20;78.50;;;;;;4212062;28;20675;-73
2022/03/26 02:55:00;;;;;;;18.58;13.60;;;18.10;78.40;;;;;;4211267;28;20219;-73
2022/03/26 02:57:03;;;;;;;16.35;13.20;;;18.20;78.50;;;;;;4209203;28;20219;-72
2022/03/26 02:59:07;;;;;;;17.65;12.18;;;18.20;78.20;;;;;;4209844;28;20279;-73
2022/03/26 03:01:10;;;;;;;16.35;12.52;;;18.20;78.20;;;;;;4210588;28;20207;-72
2022/03/26 03:03:12;;;;;;;17.00;12.02;;;18.10;78.20;;;;;;4210079;28;20218;-72
2022/03/26 03:05:14;;;;;;;17.25;12.80;;;18.10;78.20;;;;;;4211270;28;20210;-72
2022/03/26 03:07:17;;;;;;;16.77;12.23;;;18.20;78.40;;;;;;4209975;28;20267;-72
2022/03/26 03:09:21;;;;;;;18.13;12.32;;;18.20;78.50;;;;;;4210129;28;20642;-72
2022/03/26 03:11:24;;;;;;;15.70;12.38;;;18.20;78.50;;;;;;4209573;28;20252;-73
2022/03/26 03:13:27;;;;;;;15.15;12.30;;;18.10;78.30;;;;;;4209425;28;20263;-72
2022/03/26 03:15:29;;;;;;;16.60;12.10;;;18.20;78.20;;;;;;4210083;28;20264;-72
2022/03/26 03:17:37;;;;;;;17.20;12.88;;;18.20;78.30;;;;;;4211808;28;20650;-72
2022/03/26 03:19:39;;;;;;;14.68;11.73;;;18.20;78.30;;;;;;4210471;28;20214;-73
2022/03/26 03:21:41;;;;;;;16.17;11.63;;;18.20;78.30;;;;;;4209272;28;20202;-73
2022/03/26 03:23:44;;;;;;;14.73;12.52;;;18.20;78.50;;;;;;4209142;28;20223;-72
2022/03/26 03:25:47;;;;;;;15.70;11.63;;;18.20;78.30;;;;;;4210300;28;20223;-72
2022/03/26 03:27:50;;;;;;;15.45;12.05;;;18.20;78.30;;;;;;4211138;28;20719;-73
2022/03/26 03:29:52;;;;;;;15.25;11.70;;;18.20;78.60;;;;;;4207054;28;20275;-72
2022/03/26 03:31:54;;;;;;;16.40;11.48;;;18.20;78.60;;;;;;4208887;28;20234;-73
2022/03/26 03:33:57;;;;;;;15.43;11.73;;;18.20;78.60;;;;;;4208188;28;20245;-72
2022/03/26 03:35:59;;;;;;;16.98;12.25;;;18.10;78.50;;;;;;4209480;28;20646;-72
2022/03/26 03:38:02;;;;;;;14.20;11.45;;;18.20;78.70;;;;;;4210181;28;20214;-72
2022/03/26 03:40:05;;;;;;;15.85;11.18;;;18.20;78.60;;;;;;4210052;28;20280;-73
2022/03/26 03:42:09;;;;;;;15.50;11.98;;;18.20;78.80;;;;;;4209828;28;20206;-73
2022/03/26 03:44:12;;;;;;;15.65;11.82;;;18.20;78.70;;;;;;4211233;28;20677;-73
2022/03/26 03:46:14;;;;;;;14.10;10.98;;;18.10;78.60;;;;;;4210827;28;20248;-72
2022/03/26 03:48:16;;;;;;;14.95;11.88;;;18.20;78.70;;;;;;4209970;28;20214;-73
2022/03/26 03:50:19;;;;;;;13.73;11.10;;;18.10;78.70;;;;;;4210024;28;20226;-72
2022/03/26 03:52:22;;;;;;;12.70;10.90;;;18.20;78.90;;;;;;4207220;28;20788;-72
2022/03/26 03:54:24;;;;;;;13.90;10.82;;;18.20;79.00;;;;;;4209749;28;20215;-73
2022/03/26 03:56:27;;;;;;;15.15;12.05;;;18.20;78.90;;;;;;4209320;28;20227;-73
2022/03/26 03:58:31;;;;;;;13.88;11.02;;;18.20;78.90;;;;;;4209505;28;20207;-72
2022/03/26 04:00:33;;;;;;;14.30;10.70;;;18.10;78.70;;;;;;4210760;28;20218;-73
2022/03/26 04:02:35;;;;;;;15.35;11.32;;;18.10;78.90;;;;;;4209584;28;20214;-72
2022/03/26 04:04:38;;;;;;;14.07;11.02;;;18.10;78.10;;;;;;4209884;28;20267;-73
2022/03/26 04:06:41;;;;;;;17.23;11.68;;;18.10;79.70;;;;;;4209429;28;20268;-73
2022/03/26 04:08:43;;;;;;;16.55;10.70;;;18.10;78.90;;;;;;4208858;28;20236;-73
2022/03/26 04:10:46;;;;;;;13.85;11.15;;;18.20;79.00;;;;;;4208356;28;20283;-72
2022/03/26 04:12:48;;;;;;;13.40;11.07;;;18.20;79.00;;;;;;4210361;28;20646;-72
2022/03/26 04:14:52;;;;;;;12.80;11.30;;;18.10;78.90;;;;;;4209393;28;20672;-72
2022/03/26 04:16:54;;;;;;;14.02;11.27;;;18.10;78.90;;;;;;4209323;28;20268;-72
2022/03/26 04:18:58;;;;;;;13.35;10.90;;;18.20;79.00;;;;;;4209887;28;20218;-72
2022/03/26 04:21:00;;;;;;;13.00;10.38;;;18.10;79.00;;;;;;4208394;28;20666;-72
2022/03/26 04:23:03;;;;;;;13.80;10.48;;;18.20;79.20;;;;;;4208036;28;20215;-72
2022/03/26 04:25:07;;;;;;;14.15;11.00;;;18.10;79.30;;;;;;4208723;28;20222;-73
2022/03/26 04:27:09;;;;;;;12.45;10.45;;;18.10;79.00;;;;;;4207714;28;20211;-72
2022/03/26 04:29:12;;;;;;;13.82;10.75;;;18.20;79.00;;;;;;4207777;28;20214;-72
2022/03/26 04:31:15;;;;;;;13.68;10.50;;;18.10;79.10;;;;;;4208739;28;20230;-72
2022/03/26 04:33:17;;;;;;;15.75;10.48;;;18.20;79.40;;;;;;4209407;28;20234;-72
2022/03/26 04:35:20;;;;;;;12.50;10.55;;;18.20;79.10;;;;;;4209780;28;20214;-73
2022/03/26 04:37:22;;;;;;;13.43;10.50;;;18.20;79.10;;;;;;4208939;28;20267;-73
2022/03/26 04:39:25;;;;;;;13.85;10.80;;;18.20;79.50;;;;;;4208950;28;20214;-72
2022/03/26 04:41:28;;;;;;;13.60;10.80;;;18.10;79.40;;;;;;4209362;28;20607;-73
2022/03/26 04:43:30;;;;;;;15.32;10.77;;;18.10;79.50;;;;;;4209437;28;20211;-72
2022/03/26 04:45:33;;;;;;;13.63;10.52;;;18.10;79.30;;;;;;4209839;28;20667;-72
2022/03/26 04:47:38;;;;;;;13.55;10.68;;;18.20;79.30;;;;;;4210447;28;20654;-73
2022/03/26 04:49:41;;;;;;;12.38;9.85;;;18.10;79.10;;;;;;4211042;28;20600;-73
2022/03/26 04:51:44;;;;;;;12.60;10.52;;;18.10;79.20;;;;;;4210644;28;20272;-73
2022/03/26 04:53:46;;;;;;;12.85;10.60;;;18.20;79.40;;;;;;4204464;28;20711;-73
2022/03/26 04:55:48;;;;;;;12.48;10.50;;;18.10;79.40;;;;;;4208897;28;20267;-73
2022/03/26 04:57:51;;;;;;;14.95;10.63;;;18.20;79.60;;;;;;4210435;28;20207;-73
2022/03/26 04:59:53;;;;;;;17.40;11.07;;;18.10;79.60;;;;;;4208984;28;20223;-73
2022/03/26 05:01:56;;;;;;;15.25;10.50;;;18.10;79.60;;;;;;4208440;28;21030;-72
2022/03/26 05:04:00;;;;;;;14.95;10.68;;;18.20;79.80;;;;;;4210719;28;20224;-72
2022/03/26 05:06:02;;;;;;;13.85;11.00;;;18.10;79.70;;;;;;4213671;28;20214;-73
2022/03/26 05:08:05;;;;;;;12.82;9.98;;;18.10;79.50;;;;;;4212036;28;20635;-72
2022/03/26 05:10:08;;;;;;;13.52;10.13;;;18.10;79.60;;;;;;4211473;28;20276;-72
2022/03/26 05:12:11;;;;;;;10.82;9.52;;;18.10;79.60;;;;;;4211461;28;20225;-72
2022/03/26 05:14:13;;;;;;;15.85;10.52;;;18.10;79.60;;;;;;4213218;28;20206;-72
2022/03/26 05:16:16;;;;;;;14.88;10.65;;;18.10;79.50;;;;;;4212068;28;20666;-72
2022/03/26 05:18:18;;;;;;;11.63;10.25;;;18.10;79.70;;;;;;4208858;28;20214;-73
2022/03/26 05:20:23;;;;;;;11.48;10.27;;;18.10;79.60;;;;;;4212340;28;20240;-73
2022/03/26 05:22:25;;;;;;;12.73;9.98;;;18.10;79.70;;;;;;4213367;28;20257;-72
2022/03/26 05:24:27;;;;;;;12.23;10.13;;;18.10;79.70;;;;;;4213003;28;20210;-73
2022/03/26 05:26:30;;;;;;;13.02;10.32;;;18.10;79.80;;;;;;4213374;28;20663;-73
2022/03/26 05:28:32;;;;;;;12.68;10.38;;;18.10;79.70;;;;;;4213669;28;20218;-73
2022/03/26 05:30:35;;;;;;;13.05;9.88;;;18.10;79.70;;;;;;4212580;28;21069;-72
2022/03/26 05:32:37;;;;;;;11.88;9.93;;;18.10;80.10;;;;;;4213665;28;20279;-72
2022/03/26 05:34:39;;;;;;;12.90;9.82;;;18.10;79.90;;;;;;4212571;28;20219;-73
2022/03/26 05:36:43;;;;;;;14.23;10.35;;;18.10;80.00;;;;;;4212475;28;20218;-73
2022/03/26 05:38:45;;;;;;;13.13;9.93;;;18.10;80.00;;;;;;4211082;28;20624;-73
2022/03/26 05:40:47;;;;;;;10.88;9.77;;;18.10;80.10;;;;;;4212458;28;20736;-72
2022/03/26 05:42:51;;;;;;;11.18;9.80;;;18.00;80.00;;;;;;4213573;28;20295;-72
2022/03/26 05:44:53;;;;;;;12.32;10.18;;;18.10;80.00;;;;;;4211599;28;20599;-73
2022/03/26 05:46:55;;;;;;;11.82;10.40;;;18.00;80.00;;;;;;4212696;28;20226;-72
2022/03/26 05:48:58;;;;;;;12.90;10.30;;;18.00;80.20;;;;;;4213395;28;20275;-72
2022/03/26 05:51:00;;;;;;;13.07;10.48;;;18.00;80.20;;;;;;4212871;28;20529;-72
2022/03/26 05:53:04;;;;;;;11.95;9.90;;;18.00;80.20;;;;;;4213288;28;20238;-72
2022/03/26 05:55:07;;;;;;;11.60;10.07;;;18.00;80.20;;;;;;4212537;28;20244;-73
2022/03/26 05:57:10;;;;;;;11.80;9.60;;;18.00;80.20;;;;;;4212454;28;20272;-72
2022/03/26 05:59:12;;;;;;;15.15;10.07;;;18.00;80.30;;;;;;4211109;28;20265;-73
2022/03/26 06:01:15;;;;;;;13.18;10.50;;;18.00;80.40;;;;;;4213136;28;20259;-72
2022/03/26 06:03:18;;;;;;;11.50;9.23;;;18.00;80.20;;;;;;4211893;28;20210;-73
2022/03/26 06:05:20;;;;;;;13.18;10.07;;;18.00;80.20;;;;;;4212381;28;20222;-73
2022/03/26 06:07:22;;;;;;;12.02;10.23;;;18.00;80.30;;;;;;4209810;28;20210;-72
2022/03/26 06:09:26;;;;;;;13.95;9.95;;;18.00;80.50;;;;;;4209757;28;20215;-73
2022/03/26 06:11:28;;;;;;;13.02;9.80;;;18.00;80.40;;;;;;4212534;28;20207;-72
2022/03/26 06:13:31;;;;;;;11.55;9.80;;;18.00;80.60;;;;;;4213113;28;20260;-72
2022/03/26 06:15:34;;;;;;;10.80;9.15;;;18.00;80.40;;;;;;4210778;28;20256;-73
2022/03/26 06:17:37;;;;;;;12.02;9.18;;;18.00;80.60;;;;;;4211903;28;20801;-72
2022/03/26 06:19:39;;;;;;;14.15;9.98;;;18.00;80.40;;;;;;4212603;28;20218;-72
2022/03/26 06:21:42;;;;;;;14.30;9.90;;;18.00;80.40;;;;;;4211949;28;20211;-73
2022/03/26 06:23:44;;;;;;;12.90;10.13;;;18.00;80.40;;;;;;4209199;28;20207;-73
2022/03/26 06:25:48;;;;;;;12.73;9.57;;;18.00;80.60;;;;;;4212253;28;20210;-72
2022/03/26 06:27:51;;;;;;;13.52;10.40;;;18.00;80.60;;;;;;4211420;28;20211;-73
2022/03/26 06:29:53;;;;;;;14.25;9.40;;;18.00;80.40;;;;;;4212483;28;20219;-72
2022/03/26 06:31:55;;;;;;;13.73;10.43;;;18.00;80.80;;;;;;4212414;28;20238;-73
2022/03/26 06:33:58;;;;;;;11.90;9.55;;;18.00;80.50;;;;;;4211284;28;20649;-73
2022/03/26 06:36:01;;;;;;;12.23;9.25;;;18.00;80.80;;;;;;4212563;28;20211;-73
2022/03/26 06:38:03;;;;;;;11.85;9.68;;;18.00;81.50;;;;;;4211843;28;20295;-72
2022/03/26 06:40:08;;;;;;;10.80;9.65;;;18.00;80.60;;;;;;4211579;28;20223;-72
2022/03/26 06:42:11;;;;;;;11.70;9.85;;;18.00;81.70;;;;;;4212337;28;20275;-73
2022/03/26 06:44:14;;;;;;;12.90;9.85;;;18.00;80.80;;;;;;4209839;28;20199;-72
2022/03/26 06:46:16;;;;;;;11.90;9.75;;;18.00;81.00;;;;;;4212082;28;20218;-73
2022/03/26 06:48:18;;;;;;;11.82;9.60;;;18.00;81.00;;;;;;4210194;28;20260;-73
2022/03/26 06:50:21;;;;;;;12.93;9.73;;;18.00;80.90;;;;;;4211681;28;20280;-73
2022/03/26 06:52:23;;;;;;;11.35;9.63;;;18.00;80.80;;;;;;4212213;28;21358;-73
2022/03/26 06:54:27;;;;;;;12.10;9.27;;;18.00;80.90;;;;;;4211124;28;20230;-72
2022/03/26 06:56:30;;;;;;;11.50;9.55;;;18.00;80.80;;;;;;4211987;28;20223;-72
2022/03/26 06:58:34;;;;;;;11.40;8.93;;;18.00;80.80;;;;;;4209624;28;20214;-72
2022/03/26 07:00:36;;;;;;;11.60;9.70;;;18.10;81.10;;;;;;4209997;28;20218;-72
2022/03/26 07:02:39;;;;;;;13.15;9.63;;;18.00;81.00;;;;;;4211949;28;20218;-72
2022/03/26 07:04:41;;;;;;;11.77;9.25;;;18.10;81.10;;;;;;4208981;28;20663;-72
2022/03/26 07:06:44;;;;;;;13.43;9.55;;;18.00;81.10;;;;;;4206258;28;20268;-73
2022/03/26 07:08:46;;;;;;;11.60;9.40;;;18.00;81.50;;;;;;4211137;28;20619;-73
2022/03/26 07:10:48;;;;;;;10.73;9.23;;;18.10;81.30;;;;;;4212182;28;20548;-72
2022/03/26 07:12:50;;;;;;;10.88;9.05;;;18.10;81.70;;;;;;4211373;28;20561;-73
2022/03/26 07:14:54;;;;;;;11.50;9.05;;;18.00;81.40;;;;;;4210187;28;20749;-72
2022/03/26 07:16:56;;;;;;;12.70;9.13;;;18.10;81.70;;;;;;4211152;28;20234;-72
2022/03/26 07:18:59;;;;;;;12.18;9.00;;;18.10;81.80;;;;;;4211311;28;20218;-73
2022/03/26 07:21:01;;;;;;;10.65;8.82;;;18.10;82.50;;;;;;4209426;28;20218;-73
2022/03/26 07:23:03;;;;;;;11.00;9.27;;;18.10;82.10;;;;;;4211331;28;20255;-72
2022/03/26 07:25:07;;;;;;;12.13;9.82;;;18.10;81.70;;;;;;4211809;28;20552;-72
2022/03/26 07:27:10;;;;;;;11.13;9.35;;;18.10;82.70;;;;;;4211517;28;20223;-72
2022/03/26 07:29:12;;;;;;;10.93;9.45;;;18.10;82.00;;;;;;4211506;28;20651;-73
2022/03/26 07:31:16;;;;;;;11.85;9.48;;;18.10;82.10;;;;;;4211624;28;20283;-72
2022/03/26 07:33:18;;;;;;;11.20;9.32;;;18.10;82.20;;;;;;4209396;28;20206;-73
2022/03/26 07:35:20;;;;;;;11.90;9.60;;;18.10;82.20;;;;;;4211800;28;20598;-73
2022/03/26 07:37:23;;;;;;;9.63;8.63;;;18.10;82.20;;;;;;4209031;28;20222;-72
2022/03/26 07:39:25;;;;;;;10.07;9.05;;;18.10;82.30;;;;;;4209257;28;20260;-73
2022/03/26 07:41:27;;;;;;;10.95;9.65;;;18.10;82.40;;;;;;4211698;28;20210;-73
2022/03/26 07:43:30;;;;;;;12.73;9.18;;;18.10;82.20;;;;;;4211429;28;20252;-73
2022/03/26 07:45:32;;;;;;;12.85;9.00;;;18.10;82.00;;;;;;4211176;28;20299;-73
2022/03/26 07:47:37;;;;;;;11.40;9.20;;;18.10;82.10;;;;;;4209981;28;20214;-72
2022/03/26 07:49:39;;;;;;;10.20;8.65;;;18.10;82.20;;;;;;4211069;28;20240;-73
2022/03/26 07:51:41;;;;;;;12.18;8.60;;;18.10;82.50;;;;;;4210223;28;20210;-73
2022/03/26 07:53:44;;;;;;;10.85;9.40;;;18.10;82.30;;;;;;4210594;28;20264;-73
2022/03/26 07:55:46;;;;;;;10.00;9.00;;;18.10;82.40;;;;;;4207228;28;20272;-73
2022/03/26 07:57:48;;;;;;;12.60;9.80;;;18.10;82.20;;;;;;4206131;28;20218;-73
2022/03/26 07:59:51;;;;;;;11.52;9.43;;;18.10;82.20;;;;;;4211324;28;20206;-73
2022/03/26 08:01:53;;;;;;;11.50;9.18;;;18.10;82.20;;;;;;4210162;28;20218;-72
2022/03/26 08:03:57;;;;;;;9.93;8.85;;;18.10;82.30;;;;;;4207269;28;20215;-73
2022/03/26 08:05:59;;;;;;;9.98;8.65;;;18.10;82.40;;;;;;4209804;28;20316;-73
2022/03/26 08:08:01;;;;;;;9.90;8.65;;;18.10;82.20;;;;;;4208798;28;20291;-72
2022/03/26 08:10:04;;;;;;;11.25;8.57;;;18.10;82.50;;;;;;4211119;28;20689;-72
2022/03/26 08:12:07;;;;;;;11.88;8.82;;;18.20;82.60;;;;;;4208622;28;20614;-73
2022/03/26 08:14:10;;;;;;;10.80;8.50;;;18.20;82.60;;;;;;4210914;28;20698;-73
2022/03/26 08:16:12;;;;;;;10.13;8.35;;;18.10;82.50;;;;;;4209488;28;20291;-73
2022/03/26 08:18:16;;;;;;;13.35;9.25;;;18.10;82.50;;;;;;4210833;28;20206;-72
2022/03/26 08:20:20;;;;;;;11.40;8.45;;;18.20;82.50;;;;;;4210497;28;20222;-73
2022/03/26 08:22:22;;;;;;;13.63;9.38;;;18.20;82.70;;;;;;4209683;28;20953;-73
2022/03/26 08:24:24;;;;;;;10.02;8.20;;;18.20;82.60;;;;;;4209660;28;20724;-73
2022/03/26 08:26:29;;;;;;;11.07;8.88;;;18.20;82.70;;;;;;4209384;28;20218;-72
2022/03/26 08:28:31;;;;;;;9.35;8.35;;;18.20;82.80;;;;;;4211579;28;20215;-72
2022/03/26 08:30:34;;;;;;;11.68;8.98;;;18.20;82.90;;;;;;4212701;28;20226;-72
2022/03/26 08:32:36;;;;;;;11.32;8.45;;;18.20;82.80;;;;;;4209187;28;20674;-72
2022/03/26 08:34:38;;;;;;;12.68;8.95;;;18.20;83.00;;;;;;4211825;28;20303;-73
2022/03/26 08:36:42;;;;;;;12.73;8.45;;;18.30;83.50;;;;;;4212321;28;20214;-72
2022/03/26 08:38:46;;;;;;;10.35;9.07;;;18.20;83.10;;;;;;4199864;28;20219;-72
2022/03/26 08:40:48;;;;;;;11.45;8.90;;;18.20;83.00;;;;;;4209376;28;20707;-73
2022/03/26 08:42:51;;;;;;;11.23;9.23;;;18.30;83.30;;;;;;4208730;28;20223;-72
2022/03/26 08:44:53;;;;;;;10.45;8.63;;;18.30;83.20;;;;;;4212640;28;20643;-72
2022/03/26 08:46:55;;;;;;;11.75;8.93;;;18.30;83.40;;;;;;4203185;28;20226;-72
2022/03/26 08:48:58;;;;;;;13.13;8.40;;;18.30;83.10;;;;;;4199819;28;20276;-73
2022/03/26 08:51:01;;;;;;;13.68;9.10;;;18.30;82.90;;;;;;4207409;28;20670;-73
2022/03/26 08:53:05;;;;;;;10.00;8.50;;;18.30;83.10;;;;;;4204178;28;20249;-72
2022/03/26 08:55:08;;;;;;;10.75;8.13;;;18.20;82.70;;;;;;4211841;28;21854;-72
2022/03/26 08:57:10;;;;;;;10.80;8.98;;;18.30;83.30;;;;;;4212336;28;20599;-72
2022/03/26 08:59:13;;;;;;;13.32;8.57;;;18.30;83.60;;;;;;4212432;28;20267;-73
2022/03/26 09:01:16;;;;;;;12.63;9.05;;;18.30;83.70;;;;;;4208506;28;20214;-72
2022/03/26 09:03:20;;;;;;;10.50;8.55;;;18.30;83.70;;;;;;4202827;28;20606;-73
2022/03/26 09:05:22;;;;;;;11.98;8.52;;;18.30;83.70;;;;;;4210306;28;20206;-72
2022/03/26 09:07:25;;;;;;;11.20;9.25;;;18.30;83.60;;;;;;4208631;28;20240;-72
2022/03/26 09:09:28;;;;;;;11.25;8.13;;;18.30;84.00;;;;;;4197925;28;20219;-72
2022/03/26 09:11:31;;;;;;;11.43;9.07;;;18.30;83.80;;;;;;4204489;28;20226;-72
2022/03/26 09:13:34;;;;;;;9.95;8.43;;;18.30;84.20;;;;;;4208426;28;20276;-73
2022/03/26 09:15:36;;;;;;;11.25;8.57;;;18.30;84.20;;;;;;4205206;28;20237;-73
2022/03/26 09:17:40;;;;;;;9.57;8.30;;;18.30;84.30;;;;;;4203851;28;20241;-72
2022/03/26 09:19:42;;;;;;;8.82;7.72;;;18.40;84.90;;;;;;4203256;28;20214;-72
2022/03/26 09:21:46;;;;;;;11.25;8.40;;;18.40;84.10;;;;;;4212248;28;20218;-72
2022/03/26 09:23:48;;;;;;;10.90;8.50;;;18.40;84.10;;;;;;4211756;28;20210;-72
2022/03/26 09:25:52;;;;;;;12.45;8.60;;;18.40;84.10;;;;;;4207295;28;20280;-72
2022/03/26 09:27:54;;;;;;;12.13;8.90;;;18.40;83.90;;;;;;4216711;28;20327;-72
2022/03/26 09:29:57;;;;;;;10.07;7.88;;;18.40;83.90;;;;;;4215380;28;20650;-73
2022/03/26 09:31:59;;;;;;;10.27;8.10;;;18.40;84.00;;;;;;4206919;28;20238;-72
2022/03/26 09:34:01;;;;;;;10.45;8.13;;;18.40;83.90;;;;;;4207333;28;20219;-72
2022/03/26 09:36:04;;;;;;;12.55;8.25;;;18.50;84.30;;;;;;4198164;28;20235;-72
2022/03/26 09:38:06;;;;;;;10.15;7.70;;;18.50;84.20;;;;;;4208979;28;20222;-72
2022/03/26 09:40:10;;;;;;;10.07;8.23;;;18.50;84.40;;;;;;4207103;28;20222;-73
2022/03/26 09:42:15;;;;;;;11.00;8.82;;;18.50;84.40;;;;;;4207034;28;21090;-72
2022/03/26 09:44:18;;;;;;;9.95;8.07;;;18.50;84.60;;;;;;4203161;28;20272;-72
2022/03/26 09:46:20;;;;;;;13.00;8.90;;;18.50;84.30;;;;;;4203642;28;20257;-73
2022/03/26 09:48:22;;;;;;;10.77;8.52;;;18.50;84.40;;;;;;4211197;28;20315;-72
2022/03/26 09:50:25;;;;;;;8.90;7.78;;;18.50;84.50;;;;;;4209476;28;20219;-72
2022/03/26 09:52:27;;;;;;;10.55;8.40;;;18.50;84.50;;;;;;4208483;28;20211;-73
2022/03/26 09:54:30;;;;;;;10.18;8.38;;;18.50;84.70;;;;;;4204626;28;20659;-72
2022/03/26 09:56:32;;;;;;;8.70;7.78;;;18.50;84.60;;;;;;4215177;28;20276;-72
2022/03/26 09:58:36;;;;;;;9.68;8.55;;;18.60;84.50;;;;;;4213460;28;20211;-72
2022/03/26 10:00:38;;;;;;;9.27;7.70;;;18.50;84.40;;;;;;4214990;28;20222;-72
2022/03/26 10:02:40;;;;;;;10.07;7.70;;;18.60;84.50;;;;;;4214879;28;20261;-73
2022/03/26 10:04:44;;;;;;;8.75;7.85;;;18.60;84.40;;;;;;4212919;28;20268;-72
2022/03/26 10:06:50;;;;;;;9.75;7.82;;;18.60;84.20;;;;;;4205188;28;20729;-73
2022/03/26 10:08:53;;;;;;;11.27;8.00;;;18.60;84.40;;;;;;4209454;28;20632;-72
2022/03/26 10:10:55;;;;;;;10.57;8.20;;;18.60;84.20;;;;;;4209979;28;20272;-72
2022/03/26 10:12:58;;;;;;;9.40;7.80;;;18.60;84.00;;;;;;4214424;28;20231;-72
2022/03/26 10:15:04;;;;;;;9.40;7.05;;;18.60;84.10;;;;;;4214660;28;20732;-73
2022/03/26 10:17:14;;;;;;;10.38;7.78;;;18.60;84.20;;;;;;4213553;28;20218;-72
2022/03/26 10:19:22;;;;;;;9.73;8.68;;;18.60;84.70;;;;;;4215003;28;20700;-72
2022/03/26 10:21:24;;;;;;;9.30;8.18;;;18.70;83.90;;;;;;4213408;28;20224;-73
2022/03/26 10:23:28;;;;;;;9.38;7.95;;;18.60;84.00;;;;;;4199511;28;20237;-72
2022/03/26 10:25:31;;;;;;;10.93;8.68;;;18.60;83.90;;;;;;4210273;28;20210;-73
2022/03/26 10:27:38;;;;;;;8.80;7.40;;;18.60;83.80;;;;;;4211893;28;20211;-72